sensor_id;sensor_type;location;lat;lon;timestamp;P1;durP1;ratioP1;P2;durP2;ratioP2
60859;SDS011;46694;54.382;9.708;2023-01-01T00:00:50;17.50;;;13.30;;
60859;SDS011;46694;54.382;9.708;2023-01-01T00:03:30;27.27;;;13.73;;
60859;SDS011;46694;54.382;9.708;2023-01-01T00:06:10;32.47;;;14.03;;
60859;SDS011;46694;54.382;9.708;2023-01-01T00:08:51;36.77;;;13.80;;
60859;SDS011;46694;54.382;9.708;2023-01-01T00:11:51;24.97;;;14.10;;
60859;SDS011;46694;54.382;9.708;2023-01-01T00:14:30;24.87;;;13.50;;
60859;SDS011;46694;54.382;9.708;2023-01-01T00:17:10;32.97;;;11.50;;
60859;SDS011;46694;54.382;9.708;2023-01-01T00:19:49;29.17;;;11.07;;
60859;SDS011;46694;54.382;9.708;2023-01-01T00:22:29;25.80;;;12.50;;
60859;SDS011;46694;54.382;9.708;2023-01-01T00:25:09;24.03;;;11.47;;
60859;SDS011;46694;54.382;9.708;2023-01-01T00:27:53;28.80;;;11.70;;
60859;SDS011;46694;54.382;9.708;2023-01-01T00:30:33;27.00;;;11.93;;
60859;SDS011;46694;54.382;9.708;2023-01-01T00:33:13;22.60;;;11.37;;
60859;SDS011;46694;54.382;9.708;2023-01-01T00:35:52;20.10;;;10.50;;
60859;SDS011;46694;54.382;9.708;2023-01-01T00:38:32;25.43;;;11.60;;
60859;SDS011;46694;54.382;9.708;2023-01-01T00:41:14;26.63;;;11.33;;
60859;SDS011;46694;54.382;9.708;2023-01-01T00:43:54;25.43;;;11.13;;
60859;SDS011;46694;54.382;9.708;2023-01-01T00:46:34;34.57;;;11.20;;
60859;SDS011;46694;54.382;9.708;2023-01-01T00:49:13;29.97;;;11.20;;
60859;SDS011;46694;54.382;9.708;2023-01-01T00:51:55;24.30;;;11.50;;
60859;SDS011;46694;54.382;9.708;2023-01-01T00:54:35;23.37;;;10.27;;
60859;SDS011;46694;54.382;9.708;2023-01-01T00:57:14;40.73;;;11.67;;
60859;SDS011;46694;54.382;9.708;2023-01-01T00:59:54;22.97;;;11.20;;
60859;SDS011;46694;54.382;9.708;2023-01-01T01:02:34;21.67;;;11.60;;
60859;SDS011;46694;54.382;9.708;2023-01-01T01:05:13;22.23;;;10.30;;
60859;SDS011;46694;54.382;9.708;2023-01-01T01:07:53;23.53;;;11.83;;
60859;SDS011;46694;54.382;9.708;2023-01-01T01:10:32;23.30;;;11.20;;
60859;SDS011;46694;54.382;9.708;2023-01-01T01:13:12;21.67;;;10.23;;
60859;SDS011;46694;54.382;9.708;2023-01-01T01:15:51;20.00;;;9.93;;
60859;SDS011;46694;54.382;9.708;2023-01-01T01:18:31;23.67;;;10.30;;
60859;SDS011;46694;54.382;9.708;2023-01-01T01:21:13;28.87;;;10.77;;
60859;SDS011;46694;54.382;9.708;2023-01-01T01:23:56;24.70;;;10.57;;
60859;SDS011;46694;54.382;9.708;2023-01-01T01:26:37;15.17;;;10.43;;
60859;SDS011;46694;54.382;9.708;2023-01-01T01:29:17;22.60;;;10.87;;
60859;SDS011;46694;54.382;9.708;2023-01-01T01:32:00;21.03;;;9.47;;
60859;SDS011;46694;54.382;9.708;2023-01-01T01:34:40;25.60;;;10.37;;
60859;SDS011;46694;54.382;9.708;2023-01-01T01:37:19;22.40;;;10.17;;
60859;SDS011;46694;54.382;9.708;2023-01-01T01:39:59;23.37;;;9.50;;
60859;SDS011;46694;54.382;9.708;2023-01-01T01:42:45;20.53;;;10.07;;
60859;SDS011;46694;54.382;9.708;2023-01-01T01:45:26;25.83;;;10.00;;
60859;SDS011;46694;54.382;9.708;2023-01-01T01:48:06;30.70;;;10.23;;
60859;SDS011;46694;54.382;9.708;2023-01-01T01:50:48;24.17;;;9.60;;
60859;SDS011;46694;54.382;9.708;2023-01-01T01:53:31;20.73;;;10.20;;
60859;SDS011;46694;54.382;9.708;2023-01-01T01:56:28;25.50;;;10.97;;
60859;SDS011;46694;54.382;9.708;2023-01-01T01:59:23;25.23;;;11.57;;
60859;SDS011;46694;54.382;9.708;2023-01-01T02:02:13;30.93;;;13.10;;
60859;SDS011;46694;54.382;9.708;2023-01-01T02:05:20;24.83;;;11.70;;
60859;SDS011;46694;54.382;9.708;2023-01-01T02:08:01;24.03;;;11.33;;
60859;SDS011;46694;54.382;9.708;2023-01-01T02:10:42;22.23;;;11.27;;
60859;SDS011;46694;54.382;9.708;2023-01-01T02:13:22;29.83;;;11.17;;
60859;SDS011;46694;54.382;9.708;2023-01-01T02:31:23;24.70;;;11.80;;
60859;SDS011;46694;54.382;9.708;2023-01-01T02:34:08;29.33;;;12.70;;
60859;SDS011;46694;54.382;9.708;2023-01-01T02:36:51;20.33;;;11.30;;
60859;SDS011;46694;54.382;9.708;2023-01-01T02:39:34;22.73;;;12.10;;
60859;SDS011;46694;54.382;9.708;2023-01-01T02:42:24;31.17;;;11.80;;
60859;SDS011;46694;54.382;9.708;2023-01-01T02:45:07;42.20;;;13.40;;
60859;SDS011;46694;54.382;9.708;2023-01-01T02:47:47;29.70;;;13.10;;
60859;SDS011;46694;54.382;9.708;2023-01-01T02:50:27;31.60;;;13.80;;
60859;SDS011;46694;54.382;9.708;2023-01-01T02:56:07;37.70;;;13.53;;
60859;SDS011;46694;54.382;9.708;2023-01-01T02:59:12;32.73;;;16.20;;
60859;SDS011;46694;54.382;9.708;2023-01-01T03:11:58;41.33;;;17.83;;
60859;SDS011;46694;54.382;9.708;2023-01-01T03:14:55;32.50;;;18.53;;
60859;SDS011;46694;54.382;9.708;2023-01-01T03:17:56;47.63;;;18.83;;
60859;SDS011;46694;54.382;9.708;2023-01-01T03:20:53;39.87;;;19.73;;
60859;SDS011;46694;54.382;9.708;2023-01-01T03:23:37;38.73;;;19.20;;
60859;SDS011;46694;54.382;9.708;2023-01-01T03:26:25;32.40;;;21.43;;
60859;SDS011;46694;54.382;9.708;2023-01-01T03:29:08;44.80;;;21.40;;
60859;SDS011;46694;54.382;9.708;2023-01-01T03:31:51;45.47;;;21.30;;
60859;SDS011;46694;54.382;9.708;2023-01-01T03:34:36;30.77;;;20.50;;
60859;SDS011;46694;54.382;9.708;2023-01-01T03:37:24;41.57;;;22.60;;
60859;SDS011;46694;54.382;9.708;2023-01-01T03:40:06;44.63;;;22.90;;
60859;SDS011;46694;54.382;9.708;2023-01-01T03:42:53;44.23;;;24.57;;
60859;SDS011;46694;54.382;9.708;2023-01-01T03:45:43;38.37;;;23.57;;
60859;SDS011;46694;54.382;9.708;2023-01-01T03:48:25;40.30;;;24.87;;
60859;SDS011;46694;54.382;9.708;2023-01-01T03:51:08;42.10;;;24.50;;
60859;SDS011;46694;54.382;9.708;2023-01-01T03:53:58;42.43;;;26.60;;
60859;SDS011;46694;54.382;9.708;2023-01-01T03:56:47;41.97;;;26.90;;
60859;SDS011;46694;54.382;9.708;2023-01-01T03:59:39;40.20;;;23.00;;
60859;SDS011;46694;54.382;9.708;2023-01-01T04:02:37;35.03;;;23.03;;
60859;SDS011;46694;54.382;9.708;2023-01-01T04:05:27;35.87;;;23.67;;
60859;SDS011;46694;54.382;9.708;2023-01-01T04:08:10;51.03;;;27.93;;
60859;SDS011;46694;54.382;9.708;2023-01-01T04:10:56;52.73;;;31.30;;
60859;SDS011;46694;54.382;9.708;2023-01-01T04:13:46;46.87;;;31.83;;
60859;SDS011;46694;54.382;9.708;2023-01-01T04:16:25;54.33;;;35.17;;
60859;SDS011;46694;54.382;9.708;2023-01-01T04:19:05;57.73;;;35.57;;
60859;SDS011;46694;54.382;9.708;2023-01-01T04:21:44;55.33;;;37.13;;
60859;SDS011;46694;54.382;9.708;2023-01-01T04:24:24;63.00;;;38.77;;
60859;SDS011;46694;54.382;9.708;2023-01-01T04:27:04;71.20;;;39.30;;
60859;SDS011;46694;54.382;9.708;2023-01-01T04:29:44;69.77;;;44.97;;
60859;SDS011;46694;54.382;9.708;2023-01-01T04:32:23;76.93;;;41.00;;
60859;SDS011;46694;54.382;9.708;2023-01-01T04:35:03;62.30;;;39.80;;
60859;SDS011;46694;54.382;9.708;2023-01-01T04:37:44;65.80;;;39.57;;
60859;SDS011;46694;54.382;9.708;2023-01-01T04:40:23;70.97;;;40.07;;
60859;SDS011;46694;54.382;9.708;2023-01-01T04:43:03;71.03;;;40.70;;
60859;SDS011;46694;54.382;9.708;2023-01-01T04:45:43;57.57;;;39.10;;
60859;SDS011;46694;54.382;9.708;2023-01-01T04:48:23;65.30;;;37.60;;
60859;SDS011;46694;54.382;9.708;2023-01-01T04:51:03;63.13;;;36.97;;
60859;SDS011;46694;54.382;9.708;2023-01-01T04:53:43;59.73;;;37.37;;
60859;SDS011;46694;54.382;9.708;2023-01-01T04:56:23;67.87;;;37.77;;
60859;SDS011;46694;54.382;9.708;2023-01-01T04:59:02;62.80;;;40.10;;
60859;SDS011;46694;54.382;9.708;2023-01-01T05:01:42;62.70;;;40.40;;
60859;SDS011;46694;54.382;9.708;2023-01-01T05:04:21;59.17;;;40.53;;
60859;SDS011;46694;54.382;9.708;2023-01-01T05:07:01;58.22;;;39.90;;
60859;SDS011;46694;54.382;9.708;2023-01-01T05:09:41;53.22;;;39.50;;
60859;SDS011;46694;54.382;9.708;2023-01-01T05:12:20;58.92;;;39.53;;
60859;SDS011;46694;54.382;9.708;2023-01-01T05:15:00;59.15;;;38.65;;
60859;SDS011;46694;54.382;9.708;2023-01-01T05:17:39;58.70;;;37.38;;
60859;SDS011;46694;54.382;9.708;2023-01-01T05:20:19;56.90;;;37.38;;
60859;SDS011;46694;54.382;9.708;2023-01-01T05:22:58;54.45;;;36.20;;
60859;SDS011;46694;54.382;9.708;2023-01-01T05:25:38;47.72;;;35.75;;
60859;SDS011;46694;54.382;9.708;2023-01-01T05:28:17;51.72;;;33.85;;
60859;SDS011;46694;54.382;9.708;2023-01-01T05:30:57;59.60;;;35.72;;
60859;SDS011;46694;54.382;9.708;2023-01-01T05:33:36;52.80;;;35.17;;
60859;SDS011;46694;54.382;9.708;2023-01-01T05:36:18;52.25;;;34.30;;
60859;SDS011;46694;54.382;9.708;2023-01-01T05:39:00;51.75;;;33.67;;
60859;SDS011;46694;54.382;9.708;2023-01-01T05:41:40;52.90;;;34.30;;
60859;SDS011;46694;54.382;9.708;2023-01-01T05:44:20;50.22;;;33.60;;
60859;SDS011;46694;54.382;9.708;2023-01-01T05:46:59;49.40;;;32.95;;
60859;SDS011;46694;54.382;9.708;2023-01-01T05:49:39;48.75;;;30.70;;
60859;SDS011;46694;54.382;9.708;2023-01-01T05:52:18;46.00;;;29.42;;
60859;SDS011;46694;54.382;9.708;2023-01-01T05:54:58;44.28;;;28.40;;
60859;SDS011;46694;54.382;9.708;2023-01-01T05:57:38;44.73;;;25.90;;
60859;SDS011;46694;54.382;9.708;2023-01-01T06:00:18;45.20;;;27.08;;
60859;SDS011;46694;54.382;9.708;2023-01-01T06:02:58;40.90;;;26.58;;
60859;SDS011;46694;54.382;9.708;2023-01-01T06:05:37;39.88;;;26.30;;
60859;SDS011;46694;54.382;9.708;2023-01-01T06:08:16;45.83;;;26.45;;
60859;SDS011;46694;54.382;9.708;2023-01-01T06:10:57;42.90;;;26.13;;
60859;SDS011;46694;54.382;9.708;2023-01-01T06:13:41;38.23;;;25.60;;
60859;SDS011;46694;54.382;9.708;2023-01-01T06:16:21;39.17;;;26.07;;
60859;SDS011;46694;54.382;9.708;2023-01-01T06:19:01;42.67;;;27.50;;
60859;SDS011;46694;54.382;9.708;2023-01-01T06:21:41;39.35;;;26.20;;
60859;SDS011;46694;54.382;9.708;2023-01-01T06:24:21;40.35;;;26.23;;
60859;SDS011;46694;54.382;9.708;2023-01-01T06:27:00;36.55;;;24.17;;
60859;SDS011;46694;54.382;9.708;2023-01-01T06:29:40;36.90;;;23.50;;
60859;SDS011;46694;54.382;9.708;2023-01-01T06:32:20;30.95;;;21.73;;
60859;SDS011;46694;54.382;9.708;2023-01-01T06:34:59;31.42;;;19.70;;
60859;SDS011;46694;54.382;9.708;2023-01-01T06:37:39;30.90;;;19.50;;
60859;SDS011;46694;54.382;9.708;2023-01-01T06:40:18;33.65;;;18.55;;
60859;SDS011;46694;54.382;9.708;2023-01-01T06:42:58;29.38;;;17.77;;
60859;SDS011;46694;54.382;9.708;2023-01-01T06:45:37;27.95;;;17.42;;
60859;SDS011;46694;54.382;9.708;2023-01-01T06:48:17;31.88;;;17.38;;
60859;SDS011;46694;54.382;9.708;2023-01-01T06:51:07;26.13;;;17.20;;
60859;SDS011;46694;54.382;9.708;2023-01-01T06:53:52;30.92;;;16.17;;
60859;SDS011;46694;54.382;9.708;2023-01-01T06:56:32;29.35;;;15.07;;
60859;SDS011;46694;54.382;9.708;2023-01-01T06:59:12;18.90;;;12.93;;
60859;SDS011;46694;54.382;9.708;2023-01-01T07:01:52;23.05;;;13.65;;
60859;SDS011;46694;54.382;9.708;2023-01-01T07:04:31;18.77;;;10.85;;
60859;SDS011;46694;54.382;9.708;2023-01-01T07:07:20;15.63;;;9.98;;
60859;SDS011;46694;54.382;9.708;2023-01-01T07:09:59;17.08;;;8.57;;
60859;SDS011;46694;54.382;9.708;2023-01-01T07:12:39;13.15;;;7.75;;
60859;SDS011;46694;54.382;9.708;2023-01-01T07:15:19;16.73;;;7.88;;
60859;SDS011;46694;54.382;9.708;2023-01-01T07:17:58;10.80;;;6.95;;
60859;SDS011;46694;54.382;9.708;2023-01-01T07:20:38;12.60;;;6.60;;
60859;SDS011;46694;54.382;9.708;2023-01-01T07:23:17;14.73;;;6.50;;
60859;SDS011;46694;54.382;9.708;2023-01-01T07:25:57;15.38;;;6.43;;
60859;SDS011;46694;54.382;9.708;2023-01-01T07:28:37;14.68;;;6.13;;
60859;SDS011;46694;54.382;9.708;2023-01-01T07:31:17;18.30;;;6.30;;
60859;SDS011;46694;54.382;9.708;2023-01-01T07:33:56;11.90;;;5.90;;
60859;SDS011;46694;54.382;9.708;2023-01-01T07:36:36;15.70;;;6.77;;
60859;SDS011;46694;54.382;9.708;2023-01-01T07:39:15;16.80;;;6.10;;
60859;SDS011;46694;54.382;9.708;2023-01-01T07:41:55;17.17;;;6.30;;
60859;SDS011;46694;54.382;9.708;2023-01-01T07:44:34;21.33;;;6.88;;
60859;SDS011;46694;54.382;9.708;2023-01-01T07:47:24;14.30;;;7.00;;
60859;SDS011;46694;54.382;9.708;2023-01-01T07:50:05;15.77;;;6.85;;
60859;SDS011;46694;54.382;9.708;2023-01-01T07:52:44;15.77;;;7.32;;
60859;SDS011;46694;54.382;9.708;2023-01-01T07:55:24;28.02;;;11.10;;
60859;SDS011;46694;54.382;9.708;2023-01-01T07:58:04;26.98;;;10.50;;
60859;SDS011;46694;54.382;9.708;2023-01-01T08:00:45;22.97;;;9.63;;
60859;SDS011;46694;54.382;9.708;2023-01-01T08:03:26;22.23;;;8.50;;
60859;SDS011;46694;54.382;9.708;2023-01-01T08:06:09;16.15;;;7.80;;
60859;SDS011;46694;54.382;9.708;2023-01-01T08:08:50;23.08;;;7.63;;
60859;SDS011;46694;54.382;9.708;2023-01-01T08:11:30;15.73;;;6.45;;
60859;SDS011;46694;54.382;9.708;2023-01-01T08:14:09;20.05;;;6.03;;
60859;SDS011;46694;54.382;9.708;2023-01-01T08:16:50;13.50;;;5.38;;
60859;SDS011;46694;54.382;9.708;2023-01-01T08:19:29;16.55;;;6.40;;
60859;SDS011;46694;54.382;9.708;2023-01-01T08:22:09;16.33;;;5.80;;
60859;SDS011;46694;54.382;9.708;2023-01-01T08:24:49;13.82;;;5.28;;
60859;SDS011;46694;54.382;9.708;2023-01-01T08:34:29;12.85;;;4.47;;
60859;SDS011;46694;54.382;9.708;2023-01-01T08:37:10;18.80;;;5.10;;
60859;SDS011;46694;54.382;9.708;2023-01-01T08:39:52;13.88;;;5.18;;
60859;SDS011;46694;54.382;9.708;2023-01-01T08:42:31;13.30;;;4.60;;
60859;SDS011;46694;54.382;9.708;2023-01-01T08:45:11;15.77;;;4.60;;
60859;SDS011;46694;54.382;9.708;2023-01-01T08:47:50;17.27;;;5.20;;
60859;SDS011;46694;54.382;9.708;2023-01-01T08:50:30;13.18;;;4.43;;
60859;SDS011;46694;54.382;9.708;2023-01-01T08:53:09;19.75;;;5.05;;
60859;SDS011;46694;54.382;9.708;2023-01-01T08:55:59;16.20;;;4.97;;
60859;SDS011;46694;54.382;9.708;2023-01-01T08:58:45;15.75;;;4.13;;
60859;SDS011;46694;54.382;9.708;2023-01-01T09:01:24;17.65;;;4.97;;
60859;SDS011;46694;54.382;9.708;2023-01-01T09:04:05;13.93;;;4.33;;
60859;SDS011;46694;54.382;9.708;2023-01-01T09:06:50;17.83;;;4.80;;
60859;SDS011;46694;54.382;9.708;2023-01-01T09:09:29;14.93;;;4.70;;
60859;SDS011;46694;54.382;9.708;2023-01-01T09:12:09;15.30;;;4.68;;
60859;SDS011;46694;54.382;9.708;2023-01-01T09:14:53;16.50;;;4.10;;
60859;SDS011;46694;54.382;9.708;2023-01-01T09:17:33;13.23;;;3.90;;
60859;SDS011;46694;54.382;9.708;2023-01-01T09:20:13;22.13;;;5.68;;
60859;SDS011;46694;54.382;9.708;2023-01-01T09:22:52;17.60;;;4.82;;
60859;SDS011;46694;54.382;9.708;2023-01-01T09:25:32;23.10;;;4.43;;
60859;SDS011;46694;54.382;9.708;2023-01-01T09:28:13;13.60;;;3.90;;
60859;SDS011;46694;54.382;9.708;2023-01-01T09:30:53;15.60;;;4.00;;
60859;SDS011;46694;54.382;9.708;2023-01-01T09:33:33;26.50;;;4.55;;
60859;SDS011;46694;54.382;9.708;2023-01-01T09:39:01;20.15;;;4.03;;
60859;SDS011;46694;54.382;9.708;2023-01-01T09:50:17;23.88;;;4.57;;
60859;SDS011;46694;54.382;9.708;2023-01-01T09:56:25;24.10;;;4.30;;
60859;SDS011;46694;54.382;9.708;2023-01-01T09:59:07;21.02;;;4.18;;
60859;SDS011;46694;54.382;9.708;2023-01-01T10:14:44;25.48;;;4.82;;
60859;SDS011;46694;54.382;9.708;2023-01-01T10:17:39;23.45;;;5.15;;
60859;SDS011;46694;54.382;9.708;2023-01-01T10:20:26;22.50;;;6.43;;
60859;SDS011;46694;54.382;9.708;2023-01-01T10:26:18;16.92;;;4.78;;
60859;SDS011;46694;54.382;9.708;2023-01-01T10:31:52;26.97;;;4.17;;
60859;SDS011;46694;54.382;9.708;2023-01-01T10:34:34;20.20;;;4.70;;
60859;SDS011;46694;54.382;9.708;2023-01-01T10:37:14;20.30;;;4.60;;
60859;SDS011;46694;54.382;9.708;2023-01-01T10:39:54;30.57;;;6.00;;
60859;SDS011;46694;54.382;9.708;2023-01-01T10:42:33;26.90;;;5.50;;
60859;SDS011;46694;54.382;9.708;2023-01-01T10:45:14;25.27;;;3.87;;
60859;SDS011;46694;54.382;9.708;2023-01-01T10:51:12;23.70;;;3.90;;
60859;SDS011;46694;54.382;9.708;2023-01-01T10:53:54;33.90;;;4.90;;
60859;SDS011;46694;54.382;9.708;2023-01-01T10:56:38;18.63;;;4.30;;
60859;SDS011;46694;54.382;9.708;2023-01-01T10:59:32;30.10;;;4.00;;
60859;SDS011;46694;54.382;9.708;2023-01-01T11:05:14;20.37;;;3.77;;
60859;SDS011;46694;54.382;9.708;2023-01-01T11:07:57;22.63;;;4.10;;
60859;SDS011;46694;54.382;9.708;2023-01-01T11:10:37;19.97;;;3.50;;
60859;SDS011;46694;54.382;9.708;2023-01-01T11:13:19;22.27;;;4.20;;
60859;SDS011;46694;54.382;9.708;2023-01-01T11:15:59;15.60;;;3.40;;
60859;SDS011;46694;54.382;9.708;2023-01-01T11:18:39;28.17;;;3.67;;
60859;SDS011;46694;54.382;9.708;2023-01-01T11:21:22;28.20;;;4.33;;
60859;SDS011;46694;54.382;9.708;2023-01-01T11:24:10;24.97;;;4.37;;
60859;SDS011;46694;54.382;9.708;2023-01-01T11:27:23;18.73;;;3.33;;
60859;SDS011;46694;54.382;9.708;2023-01-01T11:30:18;27.17;;;4.10;;
60859;SDS011;46694;54.382;9.708;2023-01-01T11:33:01;25.33;;;4.97;;
60859;SDS011;46694;54.382;9.708;2023-01-01T11:35:47;29.00;;;3.70;;
60859;SDS011;46694;54.382;9.708;2023-01-01T11:38:31;24.73;;;3.70;;
60859;SDS011;46694;54.382;9.708;2023-01-01T11:41:11;36.87;;;4.43;;
60859;SDS011;46694;54.382;9.708;2023-01-01T11:43:51;27.33;;;4.13;;
60859;SDS011;46694;54.382;9.708;2023-01-01T11:46:30;23.40;;;3.90;;
60859;SDS011;46694;54.382;9.708;2023-01-01T11:49:14;20.50;;;4.47;;
60859;SDS011;46694;54.382;9.708;2023-01-01T11:52:25;20.67;;;4.27;;
60859;SDS011;46694;54.382;9.708;2023-01-01T12:07:21;20.60;;;4.10;;
60859;SDS011;46694;54.382;9.708;2023-01-01T12:13:24;28.67;;;5.00;;
60859;SDS011;46694;54.382;9.708;2023-01-01T12:16:09;32.50;;;4.90;;
60859;SDS011;46694;54.382;9.708;2023-01-01T12:19:10;25.67;;;4.53;;
60859;SDS011;46694;54.382;9.708;2023-01-01T12:21:59;26.57;;;5.37;;
60859;SDS011;46694;54.382;9.708;2023-01-01T12:24:39;26.03;;;4.00;;
60859;SDS011;46694;54.382;9.708;2023-01-01T12:27:26;20.63;;;4.10;;
60859;SDS011;46694;54.382;9.708;2023-01-01T12:30:22;25.23;;;5.90;;
60859;SDS011;46694;54.382;9.708;2023-01-01T12:36:18;28.10;;;4.30;;
60859;SDS011;46694;54.382;9.708;2023-01-01T12:39:35;29.53;;;4.50;;
60859;SDS011;46694;54.382;9.708;2023-01-01T12:42:42;23.93;;;5.43;;
60859;SDS011;46694;54.382;9.708;2023-01-01T12:45:49;44.83;;;10.80;;
60859;SDS011;46694;54.382;9.708;2023-01-01T12:49:13;28.50;;;6.07;;
60859;SDS011;46694;54.382;9.708;2023-01-01T13:01:48;27.93;;;6.97;;
60859;SDS011;46694;54.382;9.708;2023-01-01T13:04:38;30.90;;;6.90;;
60859;SDS011;46694;54.382;9.708;2023-01-01T13:07:23;33.97;;;7.33;;
60859;SDS011;46694;54.382;9.708;2023-01-01T13:13:12;29.23;;;5.50;;
60859;SDS011;46694;54.382;9.708;2023-01-01T13:15:53;25.67;;;5.20;;
60859;SDS011;46694;54.382;9.708;2023-01-01T13:18:34;25.73;;;4.47;;
60859;SDS011;46694;54.382;9.708;2023-01-01T13:23:54;35.67;;;5.47;;
60859;SDS011;46694;54.382;9.708;2023-01-01T13:26:40;33.73;;;5.40;;
60859;SDS011;46694;54.382;9.708;2023-01-01T13:32:00;25.23;;;4.23;;
60859;SDS011;46694;54.382;9.708;2023-01-01T13:34:58;32.17;;;5.57;;
60859;SDS011;46694;54.382;9.708;2023-01-01T13:37:40;26.57;;;4.70;;
60859;SDS011;46694;54.382;9.708;2023-01-01T13:40:29;25.07;;;3.80;;
60859;SDS011;46694;54.382;9.708;2023-01-01T13:43:16;20.03;;;4.40;;
60859;SDS011;46694;54.382;9.708;2023-01-01T13:45:58;26.60;;;4.73;;
60859;SDS011;46694;54.382;9.708;2023-01-01T13:52:00;45.73;;;4.33;;
60859;SDS011;46694;54.382;9.708;2023-01-01T14:01:18;23.23;;;4.40;;
60859;SDS011;46694;54.382;9.708;2023-01-01T14:04:26;28.53;;;3.47;;
60859;SDS011;46694;54.382;9.708;2023-01-01T14:10:35;17.67;;;3.80;;
60859;SDS011;46694;54.382;9.708;2023-01-01T14:13:15;25.77;;;4.30;;
60859;SDS011;46694;54.382;9.708;2023-01-01T14:16:03;21.40;;;4.07;;
60859;SDS011;46694;54.382;9.708;2023-01-01T14:18:49;23.30;;;4.10;;
60859;SDS011;46694;54.382;9.708;2023-01-01T14:21:32;22.63;;;3.87;;
60859;SDS011;46694;54.382;9.708;2023-01-01T14:24:13;17.70;;;3.57;;
60859;SDS011;46694;54.382;9.708;2023-01-01T14:26:55;26.90;;;5.80;;
60859;SDS011;46694;54.382;9.708;2023-01-01T14:29:35;30.03;;;5.40;;
60859;SDS011;46694;54.382;9.708;2023-01-01T14:32:20;36.50;;;5.00;;
60859;SDS011;46694;54.382;9.708;2023-01-01T14:35:02;25.13;;;4.13;;
60859;SDS011;46694;54.382;9.708;2023-01-01T14:37:41;27.97;;;4.10;;
60859;SDS011;46694;54.382;9.708;2023-01-01T14:40:25;20.40;;;4.70;;
60859;SDS011;46694;54.382;9.708;2023-01-01T14:43:08;14.47;;;4.20;;
60859;SDS011;46694;54.382;9.708;2023-01-01T14:45:50;24.93;;;4.20;;
60859;SDS011;46694;54.382;9.708;2023-01-01T14:48:31;27.43;;;3.20;;
60859;SDS011;46694;54.382;9.708;2023-01-01T14:51:17;20.93;;;3.90;;
60859;SDS011;46694;54.382;9.708;2023-01-01T14:54:01;38.80;;;4.17;;
60859;SDS011;46694;54.382;9.708;2023-01-01T14:56:42;14.67;;;3.10;;
60859;SDS011;46694;54.382;9.708;2023-01-01T14:59:29;23.33;;;3.50;;
60859;SDS011;46694;54.382;9.708;2023-01-01T15:04:55;35.30;;;8.03;;
60859;SDS011;46694;54.382;9.708;2023-01-01T15:07:36;23.87;;;4.83;;
60859;SDS011;46694;54.382;9.708;2023-01-01T15:10:16;22.20;;;5.70;;
60859;SDS011;46694;54.382;9.708;2023-01-01T15:12:56;20.03;;;6.00;;
60859;SDS011;46694;54.382;9.708;2023-01-01T15:15:42;32.50;;;6.00;;
60859;SDS011;46694;54.382;9.708;2023-01-01T15:18:37;32.10;;;6.53;;
60859;SDS011;46694;54.382;9.708;2023-01-01T15:27:00;28.60;;;4.90;;
60859;SDS011;46694;54.382;9.708;2023-01-01T15:29:45;20.80;;;4.57;;
60859;SDS011;46694;54.382;9.708;2023-01-01T15:32:29;28.63;;;4.60;;
60859;SDS011;46694;54.382;9.708;2023-01-01T15:35:18;40.67;;;4.73;;
60859;SDS011;46694;54.382;9.708;2023-01-01T15:38:23;30.20;;;3.80;;
60859;SDS011;46694;54.382;9.708;2023-01-01T15:41:54;28.13;;;4.37;;
60859;SDS011;46694;54.382;9.708;2023-01-01T15:44:31;37.30;;;4.27;;
60859;SDS011;46694;54.382;9.708;2023-01-01T15:47:14;22.07;;;3.33;;
60859;SDS011;46694;54.382;9.708;2023-01-01T15:52:48;24.77;;;4.23;;
60859;SDS011;46694;54.382;9.708;2023-01-01T15:55:32;46.73;;;5.60;;
60859;SDS011;46694;54.382;9.708;2023-01-01T15:58:19;30.10;;;4.10;;
60859;SDS011;46694;54.382;9.708;2023-01-01T16:01:19;34.97;;;5.73;;
60859;SDS011;46694;54.382;9.708;2023-01-01T16:04:16;22.97;;;5.53;;
60859;SDS011;46694;54.382;9.708;2023-01-01T16:07:04;61.47;;;25.57;;
60859;SDS011;46694;54.382;9.708;2023-01-01T16:09:58;85.33;;;33.33;;
60859;SDS011;46694;54.382;9.708;2023-01-01T16:12:38;50.77;;;24.03;;
60859;SDS011;46694;54.382;9.708;2023-01-01T16:15:17;32.53;;;6.90;;
60859;SDS011;46694;54.382;9.708;2023-01-01T16:17:57;27.93;;;5.33;;
60859;SDS011;46694;54.382;9.708;2023-01-01T16:20:37;39.83;;;4.00;;
60859;SDS011;46694;54.382;9.708;2023-01-01T16:23:17;28.43;;;4.70;;
60859;SDS011;46694;54.382;9.708;2023-01-01T16:25:56;29.93;;;5.03;;
60859;SDS011;46694;54.382;9.708;2023-01-01T16:28:36;26.90;;;4.73;;
60859;SDS011;46694;54.382;9.708;2023-01-01T16:31:25;23.73;;;6.80;;
60859;SDS011;46694;54.382;9.708;2023-01-01T16:34:06;24.37;;;4.10;;
60859;SDS011;46694;54.382;9.708;2023-01-01T16:36:46;30.17;;;4.27;;
60859;SDS011;46694;54.382;9.708;2023-01-01T16:39:26;29.40;;;5.50;;
60859;SDS011;46694;54.382;9.708;2023-01-01T16:42:09;27.70;;;5.33;;
60859;SDS011;46694;54.382;9.708;2023-01-01T16:44:50;28.43;;;5.17;;
60859;SDS011;46694;54.382;9.708;2023-01-01T16:47:29;23.83;;;7.50;;
60859;SDS011;46694;54.382;9.708;2023-01-01T16:50:09;22.07;;;6.60;;
60859;SDS011;46694;54.382;9.708;2023-01-01T16:52:49;31.40;;;10.63;;
60859;SDS011;46694;54.382;9.708;2023-01-01T16:55:29;21.13;;;4.90;;
60859;SDS011;46694;54.382;9.708;2023-01-01T16:58:08;29.13;;;8.20;;
60859;SDS011;46694;54.382;9.708;2023-01-01T17:00:48;33.53;;;5.73;;
60859;SDS011;46694;54.382;9.708;2023-01-01T17:03:28;42.23;;;5.80;;
60859;SDS011;46694;54.382;9.708;2023-01-01T17:06:08;43.00;;;5.93;;
60859;SDS011;46694;54.382;9.708;2023-01-01T17:08:48;27.67;;;4.80;;
60859;SDS011;46694;54.382;9.708;2023-01-01T17:11:28;28.67;;;5.10;;
60859;SDS011;46694;54.382;9.708;2023-01-01T17:14:08;16.20;;;4.03;;
60859;SDS011;46694;54.382;9.708;2023-01-01T17:16:48;25.60;;;5.10;;
60859;SDS011;46694;54.382;9.708;2023-01-01T17:19:30;18.43;;;4.23;;
60859;SDS011;46694;54.382;9.708;2023-01-01T17:22:10;27.73;;;5.10;;
60859;SDS011;46694;54.382;9.708;2023-01-01T17:24:49;22.33;;;4.07;;
60859;SDS011;46694;54.382;9.708;2023-01-01T17:27:29;25.17;;;4.00;;
60859;SDS011;46694;54.382;9.708;2023-01-01T17:30:08;16.50;;;3.77;;
60859;SDS011;46694;54.382;9.708;2023-01-01T17:32:49;25.77;;;4.17;;
60859;SDS011;46694;54.382;9.708;2023-01-01T17:35:29;20.03;;;4.60;;
60859;SDS011;46694;54.382;9.708;2023-01-01T17:38:09;18.40;;;4.83;;
60859;SDS011;46694;54.382;9.708;2023-01-01T17:40:48;29.33;;;4.80;;
60859;SDS011;46694;54.382;9.708;2023-01-01T17:43:29;20.17;;;4.43;;
60859;SDS011;46694;54.382;9.708;2023-01-01T17:46:11;20.97;;;4.47;;
60859;SDS011;46694;54.382;9.708;2023-01-01T17:48:53;21.30;;;3.80;;
60859;SDS011;46694;54.382;9.708;2023-01-01T17:51:33;28.37;;;4.43;;
60859;SDS011;46694;54.382;9.708;2023-01-01T17:54:13;22.73;;;4.57;;
60859;SDS011;46694;54.382;9.708;2023-01-01T17:56:52;23.40;;;4.10;;
60859;SDS011;46694;54.382;9.708;2023-01-01T17:59:32;17.70;;;4.80;;
60859;SDS011;46694;54.382;9.708;2023-01-01T18:02:12;23.83;;;4.30;;
60859;SDS011;46694;54.382;9.708;2023-01-01T18:04:52;54.37;;;16.40;;
60859;SDS011;46694;54.382;9.708;2023-01-01T18:07:32;24.87;;;9.60;;
60859;SDS011;46694;54.382;9.708;2023-01-01T18:10:11;43.63;;;18.20;;
60859;SDS011;46694;54.382;9.708;2023-01-01T18:12:51;23.67;;;7.20;;
60859;SDS011;46694;54.382;9.708;2023-01-01T18:15:33;29.37;;;9.33;;
60859;SDS011;46694;54.382;9.708;2023-01-01T18:18:14;31.53;;;10.60;;